createdAt,value
2023-02-08T00:01:49.331Z,95.11
2023-02-08T00:04:52.291Z,93.23
2023-02-08T00:07:54.926Z,93.06
2023-02-08T00:10:58.110Z,91.72
2023-02-08T00:14:00.804Z,89.47
2023-02-08T00:17:05.868Z,87.62
2023-02-08T00:20:09.214Z,88.24
2023-02-08T00:23:13.509Z,86.37
2023-02-08T00:26:16.280Z,84.76
2023-02-08T00:29:20.031Z,83.76
2023-02-08T00:32:23.226Z,83.62
2023-02-08T00:35:28.720Z,83.42
2023-02-08T00:38:32.183Z,83.40
2023-02-08T00:41:35.113Z,83.94
2023-02-08T00:44:37.765Z,84.17
2023-02-08T00:47:41.012Z,84.49
2023-02-08T00:50:44.084Z,84.51
2023-02-08T00:53:47.139Z,84.19
2023-02-08T00:56:50.399Z,83.39
2023-02-08T00:59:54.923Z,83.32
2023-02-08T01:02:57.491Z,84.11
2023-02-08T01:06:02.132Z,82.44
2023-02-08T01:09:04.738Z,82.74
2023-02-08T01:12:07.733Z,82.11
2023-02-08T01:15:10.799Z,80.96
2023-02-08T01:18:14.422Z,80.91
2023-02-08T01:21:20.220Z,80.98
2023-02-08T01:24:23.330Z,80.20
2023-02-08T01:27:26.258Z,80.28
2023-02-08T01:30:30.733Z,80.42
2023-02-08T01:33:33.367Z,79.12
2023-02-08T01:36:37.170Z,79.82
2023-02-08T01:39:39.863Z,79.57
2023-02-08T01:42:43.004Z,76.50
2023-02-08T01:45:45.784Z,74.79
2023-02-08T01:48:49.036Z,73.66
2023-02-08T01:51:56.126Z,74.11
2023-02-08T01:55:05.174Z,75.74
2023-02-08T01:58:12.035Z,76.88
2023-02-08T02:01:16.228Z,76.66
2023-02-08T02:04:19.460Z,75.87
2023-02-08T02:07:26.571Z,76.21
2023-02-08T02:10:33.625Z,77.09
2023-02-08T02:13:37.540Z,75.72
2023-02-08T02:16:40.380Z,76.33
2023-02-08T02:20:18.618Z,76.00
2023-02-08T02:23:46.484Z,77.37
2023-02-08T02:27:14.420Z,76.11
2023-02-08T02:30:48.469Z,76.88
2023-02-08T02:34:03.814Z,77.77
2023-02-08T02:37:25.039Z,77.73
2023-02-08T02:41:13.204Z,77.66
2023-02-08T02:44:25.074Z,77.16
2023-02-08T02:47:49.852Z,76.27
2023-02-08T02:51:02.178Z,75.35
2023-02-08T02:54:14.564Z,75.31
2023-02-08T02:57:22.076Z,75.47
2023-02-08T03:00:28.775Z,75.66
2023-02-08T03:03:34.371Z,76.06
2023-02-08T03:06:51.545Z,75.18
2023-02-08T03:10:12.551Z,75.35
2023-02-08T03:13:26.981Z,75.71
2023-02-08T03:16:44.080Z,75.05
2023-02-08T03:20:09.918Z,74.68
2023-02-08T03:23:29.177Z,74.10
2023-02-08T03:26:48.620Z,74.68
2023-02-08T03:29:58.168Z,75.10
2023-02-08T03:33:15.760Z,75.10
2023-02-08T03:36:46.638Z,76.24
2023-02-08T03:39:52.472Z,76.07
2023-02-08T03:43:01.040Z,75.15
2023-02-08T03:46:18.894Z,75.30
2023-02-08T03:49:31.466Z,75.04
2023-02-08T03:52:36.265Z,75.71
2023-02-08T03:55:41.586Z,76.32
2023-02-08T03:58:49.701Z,77.00
2023-02-08T04:02:00.025Z,76.76
2023-02-08T04:05:05.199Z,75.29
2023-02-08T04:08:08.051Z,75.06
2023-02-08T04:11:11.500Z,75.57
2023-02-08T04:14:14.155Z,75.07
2023-02-08T04:17:17.253Z,75.28
2023-02-08T04:20:21.043Z,74.53
2023-02-08T04:23:23.948Z,75.41
2023-02-08T04:26:26.922Z,76.07
2023-02-08T04:29:30.387Z,75.73
2023-02-08T04:32:33.414Z,75.41
2023-02-08T04:35:36.556Z,76.70
2023-02-08T04:38:39.160Z,75.67
2023-02-08T04:41:42.440Z,75.73
2023-02-08T04:44:45.023Z,76.72
2023-02-08T04:47:48.164Z,76.47
2023-02-08T04:50:50.990Z,76.40
2023-02-08T04:53:54.002Z,77.02
2023-02-08T04:56:56.854Z,76.31
2023-02-08T05:00:00.519Z,76.82
2023-02-08T05:03:04.611Z,75.97
2023-02-08T05:06:07.779Z,75.28
2023-02-08T05:09:10.473Z,73.31
2023-02-08T05:12:13.557Z,73.00
2023-02-08T05:15:16.242Z,72.45
2023-02-08T05:18:19.496Z,72.41
2023-02-08T05:21:26.732Z,72.29
2023-02-08T05:24:29.752Z,72.85
2023-02-08T05:27:33.684Z,73.37
2023-02-08T05:30:41.980Z,74.25
2023-02-08T05:33:44.675Z,74.77
2023-02-08T05:36:47.446Z,75.22
2023-02-08T05:39:50.121Z,75.76
2023-02-08T05:42:52.989Z,75.86
2023-02-08T05:45:55.663Z,76.44
2023-02-08T05:48:58.750Z,76.50
2023-02-08T05:52:01.739Z,77.48
2023-02-08T05:55:05.003Z,77.08
2023-02-08T05:58:07.609Z,76.83
2023-02-08T06:01:12.039Z,76.77
2023-02-08T06:04:15.014Z,77.24
2023-02-08T06:07:17.531Z,77.65
2023-02-08T06:10:20.818Z,78.25
2023-02-08T06:13:23.758Z,78.62
2023-02-08T06:16:26.840Z,79.22
2023-02-08T06:19:29.457Z,79.79
2023-02-08T06:22:35.124Z,80.72
2023-02-08T06:25:37.947Z,78.07
2023-02-08T06:28:40.930Z,76.15
2023-02-08T06:31:43.575Z,73.92
2023-02-08T06:34:48.380Z,71.03
2023-02-08T06:37:52.181Z,68.39
2023-02-08T06:40:55.227Z,66.75
2023-02-08T06:43:59.598Z,65.73
2023-02-08T06:47:04.028Z,63.59
2023-02-08T06:50:07.206Z,62.86
2023-02-08T06:53:11.318Z,61.66
2023-02-08T06:56:14.582Z,60.07
2023-02-08T06:59:17.618Z,58.98
2023-02-08T07:02:21.641Z,57.86
2023-02-08T07:05:24.916Z,57.42
2023-02-08T07:08:27.749Z,56.21
2023-02-08T07:11:31.157Z,55.30
2023-02-08T07:14:35.716Z,53.67
2023-02-08T07:17:38.947Z,52.20
2023-02-08T07:20:42.169Z,52.57
2023-02-08T07:23:45.192Z,51.75
2023-02-08T07:26:49.474Z,51.21
2023-02-08T07:29:52.528Z,51.96
2023-02-08T07:32:55.357Z,51.37
2023-02-08T07:35:58.749Z,50.63
2023-02-08T07:39:04.456Z,50.02
2023-02-08T07:42:11.138Z,50.24
2023-02-08T07:45:15.769Z,48.62
2023-02-08T07:48:18.832Z,48.57
2023-02-08T07:51:21.446Z,48.23
2023-02-08T07:54:24.578Z,47.92
2023-02-08T07:57:27.291Z,47.63
2023-02-08T08:00:30.536Z,48.75
2023-02-08T08:03:33.759Z,48.47
2023-02-08T08:06:36.548Z,47.39
2023-02-08T08:09:40.486Z,45.48
2023-02-08T08:12:43.278Z,45.70
2023-02-08T08:15:47.539Z,44.90
2023-02-08T08:18:50.892Z,45.09
2023-02-08T08:21:54.775Z,44.04
2023-02-08T08:25:00.301Z,45.12
2023-02-08T08:28:04.680Z,42.39
2023-02-08T08:31:15.966Z,40.81
2023-02-08T08:34:21.323Z,43.72
2023-02-08T08:37:23.895Z,42.38
2023-02-08T08:40:26.872Z,42.52
2023-02-08T08:43:32.133Z,43.17
2023-02-08T08:46:35.460Z,40.82
2023-02-08T08:49:38.427Z,41.62
2023-02-08T08:52:42.766Z,45.26
2023-02-08T08:55:48.258Z,44.48
2023-02-08T08:58:51.431Z,44.52
2023-02-08T09:01:54.427Z,45.91
2023-02-08T09:05:00.338Z,46.61
2023-02-08T09:08:03.629Z,45.58
2023-02-08T09:11:09.305Z,44.95
2023-02-08T09:14:12.608Z,43.83
2023-02-08T09:17:15.560Z,42.14
2023-02-08T09:20:19.178Z,47.33
2023-02-08T09:23:22.445Z,42.91
2023-02-08T09:26:26.712Z,45.37
2023-02-08T09:29:30.303Z,42.47
2023-02-08T09:32:39.786Z,46.47
2023-02-08T09:35:42.812Z,42.92
2023-02-08T09:38:47.260Z,42.18
2023-02-08T09:42:14.438Z,41.68
2023-02-08T09:45:31.234Z,42.06
2023-02-08T09:48:37.514Z,43.98
2023-02-08T09:51:48.635Z,41.29
2023-02-08T09:54:58.360Z,40.90
2023-02-08T09:58:16.788Z,40.94
2023-02-08T10:01:31.685Z,43.97
2023-02-08T10:04:55.251Z,41.66
2023-02-08T10:08:00.202Z,42.35
2023-02-08T10:11:15.468Z,41.39
2023-02-08T10:14:37.361Z,40.81
2023-02-08T10:18:15.651Z,42.56
2023-02-08T10:21:52.258Z,44.47
2023-02-08T10:25:35.725Z,41.02
2023-02-08T10:29:00.711Z,38.22
2023-02-08T10:32:14.532Z,39.00
2023-02-08T10:35:38.211Z,38.10
2023-02-08T10:38:46.857Z,37.11
2023-02-08T10:41:51.730Z,39.27
2023-02-08T10:45:23.945Z,40.17
2023-02-08T10:48:45.233Z,37.54
2023-02-08T10:51:49.196Z,38.10
2023-02-08T10:54:53.324Z,41.27
2023-02-08T10:58:00.246Z,40.57
2023-02-08T11:01:03.850Z,41.72
2023-02-08T11:04:11.924Z,41.60
2023-02-08T11:07:21.473Z,37.89
2023-02-08T11:10:26.413Z,37.86
2023-02-08T11:13:36.860Z,37.26
2023-02-08T11:16:41.546Z,36.45
2023-02-08T11:19:46.433Z,34.83
2023-02-08T11:22:49.701Z,35.77
2023-02-08T11:25:53.658Z,35.92
2023-02-08T11:29:11.963Z,36.01
2023-02-08T11:32:16.940Z,37.02
2023-02-08T11:35:25.740Z,34.38
2023-02-08T11:38:29.761Z,36.22
2023-02-08T11:41:33.199Z,38.12
2023-02-08T11:44:42.031Z,37.43
2023-02-08T11:47:51.267Z,38.39
2023-02-08T11:51:00.602Z,35.82
2023-02-08T11:54:08.241Z,36.39
2023-02-08T11:57:22.526Z,41.12
2023-02-08T12:00:32.484Z,40.27
2023-02-08T12:03:41.137Z,41.75
2023-02-08T12:07:02.701Z,40.40
2023-02-08T12:10:17.458Z,42.33
2023-02-08T12:13:44.129Z,42.89
2023-02-08T12:16:53.296Z,41.35
2023-02-08T12:20:01.909Z,41.42
2023-02-08T12:23:31.779Z,44.64
2023-02-08T12:27:31.065Z,42.13
2023-02-08T12:31:04.442Z,39.84
2023-02-08T12:34:37.886Z,41.05
2023-02-08T12:38:18.309Z,40.37
2023-02-08T12:41:36.132Z,37.91
2023-02-08T12:44:39.041Z,39.74
2023-02-08T12:48:03.676Z,43.60
2023-02-08T12:51:30.749Z,44.31
2023-02-08T12:54:43.049Z,43.55
2023-02-08T12:57:53.091Z,44.27
2023-02-08T13:01:13.440Z,44.05
2023-02-08T13:04:23.422Z,45.28
2023-02-08T13:07:35.003Z,45.80
2023-02-08T13:10:45.292Z,45.24
2023-02-08T13:13:57.598Z,44.72
2023-02-08T13:17:12.240Z,45.57
2023-02-08T13:20:30.899Z,46.00
2023-02-08T13:23:52.441Z,43.35
2023-02-08T13:26:55.766Z,45.53
2023-02-08T13:29:58.969Z,45.48
2023-02-08T13:33:14.449Z,43.50
2023-02-08T13:36:41.337Z,43.46
2023-02-08T13:39:46.381Z,45.14
2023-02-08T13:42:57.834Z,44.60
2023-02-08T13:46:02.581Z,43.53
2023-02-08T13:49:05.441Z,43.28
2023-02-08T13:52:46.540Z,43.96
2023-02-08T13:56:01.753Z,43.96
2023-02-08T13:59:24.389Z,43.87
2023-02-08T14:02:30.664Z,45.70
2023-02-08T14:05:53.870Z,45.09
2023-02-08T14:09:07.194Z,44.72
2023-02-08T14:12:20.842Z,45.02
2023-02-08T14:15:31.815Z,44.99
2023-02-08T14:18:36.002Z,45.05
2023-02-08T14:21:46.811Z,45.09
2023-02-08T14:25:16.702Z,45.28
2023-02-08T14:28:27.205Z,45.95
2023-02-08T14:31:40.957Z,46.00
2023-02-08T14:34:45.176Z,46.20
2023-02-08T14:37:52.194Z,46.36
2023-02-08T14:41:01.889Z,46.74
2023-02-08T14:44:43.212Z,46.84
2023-02-08T14:47:48.772Z,47.48
2023-02-08T14:51:13.340Z,48.10
2023-02-08T14:54:32.153Z,47.83
2023-02-08T14:57:36.404Z,47.89
2023-02-08T15:00:40.008Z,47.61
2023-02-08T15:03:45.822Z,47.56
2023-02-08T15:07:06.778Z,48.69
2023-02-08T15:10:14.800Z,48.12
2023-02-08T15:13:27.667Z,47.97
2023-02-08T15:16:42.054Z,47.76
2023-02-08T15:19:46.543Z,48.05
2023-02-08T15:22:57.890Z,48.38
2023-02-08T15:26:06.161Z,48.42
2023-02-08T15:29:44.601Z,48.54
2023-02-08T15:32:47.921Z,48.10
2023-02-08T15:36:22.303Z,48.52
2023-02-08T15:39:39.487Z,48.53
2023-02-08T15:42:44.149Z,48.81
2023-02-08T15:46:00.686Z,49.22
2023-02-08T15:49:04.368Z,49.42
2023-02-08T15:52:09.001Z,50.48
2023-02-08T15:55:20.820Z,50.63
2023-02-08T15:58:39.177Z,51.74
2023-02-08T16:01:49.080Z,52.31
2023-02-08T16:04:53.704Z,60.47
2023-02-08T16:08:04.798Z,54.15
2023-02-08T16:11:08.645Z,53.63
2023-02-08T16:14:14.817Z,51.46
2023-02-08T16:17:38.676Z,52.02
2023-02-08T16:20:46.868Z,52.80
2023-02-08T16:23:58.866Z,53.23
2023-02-08T16:27:19.495Z,53.24
2023-02-08T16:30:28.509Z,53.84
2023-02-08T16:33:38.922Z,54.11
2023-02-08T16:36:46.473Z,54.68
2023-02-08T16:40:02.922Z,54.66
2023-02-08T16:43:29.501Z,54.75
2023-02-08T16:46:44.839Z,55.02
2023-02-08T16:49:51.763Z,54.94
2023-02-08T16:53:04.696Z,55.15
2023-02-08T16:56:12.848Z,55.07
2023-02-08T16:59:18.166Z,55.49
2023-02-08T17:02:24.676Z,55.73
2023-02-08T17:05:36.903Z,55.60
2023-02-08T17:08:41.960Z,55.77
2023-02-08T17:11:48.255Z,55.69
2023-02-08T17:14:55.368Z,55.50
2023-02-08T17:17:59.058Z,55.62
2023-02-08T17:21:02.460Z,55.91
2023-02-08T17:24:05.874Z,56.03
2023-02-08T17:27:13.927Z,56.15
2023-02-08T17:30:23.164Z,56.41
2023-02-08T17:33:28.477Z,56.63
2023-02-08T17:36:36.684Z,56.88
2023-02-08T17:39:39.986Z,57.44
2023-02-08T17:42:42.958Z,57.54
2023-02-08T17:45:46.647Z,58.01
2023-02-08T17:48:49.881Z,58.70
2023-02-08T17:51:53.763Z,58.83
2023-02-08T17:54:56.304Z,59.45
2023-02-08T17:57:59.585Z,59.24
2023-02-08T18:01:07.274Z,59.26
2023-02-08T18:04:14.041Z,59.41
2023-02-08T18:07:16.958Z,59.50
2023-02-08T18:10:21.481Z,59.73
2023-02-08T18:13:24.402Z,59.86
2023-02-08T18:16:28.829Z,60.17
2023-02-08T18:19:32.776Z,60.34
2023-02-08T18:22:37.090Z,60.81
2023-02-08T18:25:41.602Z,60.80
2023-02-08T18:28:45.163Z,61.33
2023-02-08T18:31:51.383Z,62.07
2023-02-08T18:34:55.256Z,62.49
2023-02-08T18:37:58.094Z,63.13
2023-02-08T18:41:01.834Z,63.30
2023-02-08T18:44:05.118Z,64.04
2023-02-08T18:47:08.745Z,64.98
2023-02-08T18:50:11.943Z,66.63
2023-02-08T18:53:20.262Z,65.97
2023-02-08T18:56:26.133Z,66.73
2023-02-08T18:59:29.309Z,66.91
2023-02-08T19:02:32.433Z,68.27
2023-02-08T19:05:38.281Z,68.60
2023-02-08T19:08:43.328Z,69.27
2023-02-08T19:11:49.381Z,69.14
2023-02-08T19:14:52.447Z,69.88
2023-02-08T19:17:56.007Z,70.49
2023-02-08T19:21:07.047Z,70.16
2023-02-08T19:24:15.375Z,70.74
2023-02-08T19:27:18.379Z,70.73
2023-02-08T19:30:23.797Z,71.34
2023-02-08T19:33:29.202Z,71.93
2023-02-08T19:36:39.053Z,71.66
2023-02-08T19:39:42.982Z,72.46
2023-02-08T19:42:46.328Z,72.00
2023-02-08T19:45:49.470Z,72.53
2023-02-08T19:48:54.529Z,72.95
2023-02-08T19:51:57.562Z,72.58
2023-02-08T19:55:00.793Z,73.65
2023-02-08T19:58:04.064Z,73.06
2023-02-08T20:01:22.136Z,72.82
2023-02-08T20:04:25.712Z,73.10
2023-02-08T20:07:28.403Z,72.83
2023-02-08T20:10:31.997Z,73.55
2023-02-08T20:13:37.651Z,74.15
2023-02-08T20:16:41.404Z,73.87
2023-02-08T20:19:44.486Z,73.65
2023-02-08T20:22:47.680Z,73.47
2023-02-08T20:25:50.563Z,72.80
2023-02-08T20:28:56.854Z,72.00
2023-02-08T20:32:01.012Z,72.42
2023-02-08T20:35:04.340Z,73.92
2023-02-08T20:38:07.337Z,74.40
2023-02-08T20:41:14.581Z,74.05
2023-02-08T20:44:18.922Z,75.57
2023-02-08T20:47:22.345Z,76.16
2023-02-08T20:50:26.028Z,75.71
2023-02-08T20:53:30.831Z,75.37
2023-02-08T20:56:36.086Z,75.33
2023-02-08T20:59:39.720Z,74.72
2023-02-08T21:02:44.326Z,75.03
2023-02-08T21:05:47.523Z,75.58
2023-02-08T21:08:52.050Z,75.96
2023-02-08T21:11:55.024Z,76.45
2023-02-08T21:14:59.883Z,76.49
2023-02-08T21:18:04.403Z,76.95
2023-02-08T21:21:08.574Z,77.48
2023-02-08T21:24:11.704Z,77.97
2023-02-08T21:27:14.270Z,77.75
2023-02-08T21:30:18.580Z,77.50
2023-02-08T21:33:21.511Z,78.05
2023-02-08T21:36:24.601Z,77.93
2023-02-08T21:39:27.399Z,77.06
2023-02-08T21:42:30.326Z,76.35
2023-02-08T21:45:34.504Z,76.07
2023-02-08T21:48:55.965Z,75.45
2023-02-08T21:52:16.906Z,75.65
2023-02-08T21:55:22.536Z,76.19
2023-02-08T21:58:27.426Z,78.19
2023-02-08T22:01:30.675Z,78.70
2023-02-08T22:04:34.738Z,78.69
2023-02-08T22:07:49.756Z,78.66
2023-02-08T22:10:58.288Z,78.40
2023-02-08T22:14:01.103Z,78.10
2023-02-08T22:17:04.053Z,78.37
2023-02-08T22:20:07.805Z,78.46
2023-02-08T22:23:14.072Z,78.69
2023-02-08T22:26:17.026Z,78.86
2023-02-08T22:29:20.086Z,79.77
2023-02-08T22:32:22.646Z,79.44
2023-02-08T22:35:25.989Z,79.53
2023-02-08T22:38:28.607Z,79.88
2023-02-08T22:41:31.583Z,80.08
2023-02-08T22:44:37.821Z,80.10
2023-02-08T22:47:40.809Z,80.13
2023-02-08T22:50:44.954Z,80.48
2023-02-08T22:53:48.279Z,80.98
2023-02-08T22:56:53.569Z,81.27
2023-02-08T22:59:59.571Z,81.98
2023-02-08T23:03:02.307Z,82.94
2023-02-08T23:06:07.469Z,82.75
2023-02-08T23:09:14.063Z,83.08
2023-02-08T23:12:17.345Z,83.25
2023-02-08T23:15:20.564Z,83.59
2023-02-08T23:18:24.500Z,83.82
2023-02-08T23:21:27.974Z,84.04
2023-02-08T23:24:30.763Z,83.66
2023-02-08T23:27:33.515Z,84.76
2023-02-08T23:30:40.911Z,85.22
2023-02-08T23:33:45.123Z,85.05
2023-02-08T23:36:48.069Z,85.99
2023-02-08T23:39:50.905Z,86.49
2023-02-08T23:42:53.810Z,87.30
2023-02-08T23:45:56.434Z,88.41
2023-02-08T23:48:59.339Z,88.65
2023-02-08T23:52:01.897Z,89.04
2023-02-08T23:55:05.488Z,88.45
2023-02-08T23:58:08.566Z,88.50
